»·PEaware :: N136GH CYKA-KGEG

N136GH :: CYKA-KGEG

FLIGHT INFORMATION

Flight Status: Arrived
Operator: Privately registered:
United States
More flights under this callsign
Pilot: Gabor H. (24209)
Aircraft: BEECH AIRCRAFT BONANZA
(BE36)
More flights by this aircraft type
Origin: CYKA Kamloops
Canada
Destination: KGEG Spokane Intl
United States
More flights between these airports :: More routes between these airports
Route: +YKA V323 YNY V354 YXC V112 GEG
File this flight plan on PilotEdge
Remarks:
Altitude:
(Current/Filed)
11,000ft
Speed:
(Current/Filed)
170kts
Departed: 13-Mar-20 07:11 AM
Arrived: 13-Mar-20 09:15 AM
Distance/Time
Traveled:
218nm/2:03
Distance/Time
To Go:
Arrived

Flight Plot

Page will automatically refresh every two minutes.


Map Options




Map Legend


Flown Route
Filed Route
Departure Airport
Arrival Airport
Navaid (VOR, NDB)
Fix

Horizontal Profiles

Position Reports

Time Latitude Longitude Heading Altitude Ground
Speed
13-Mar-20 07:09 50.703790 -120.453441 101 1136ft 30kts
13-Mar-20 07:10 50.697343 -120.417232 105 1609ft 112kts
13-Mar-20 07:11 50.688634 -120.366227 104 2555ft 125kts
13-Mar-20 07:12 50.683642 -120.312129 91 3555ft 125kts
13-Mar-20 07:13 50.683625 -120.258008 91 4549ft 121kts
13-Mar-20 07:14 50.683707 -120.206918 90 5527ft 114kts
13-Mar-20 07:15 50.683679 -120.159159 87 6507ft 103kts
13-Mar-20 07:16 50.683758 -120.117572 88 7467ft 85kts
13-Mar-20 07:17 50.682396 -120.079558 82 7913ft 110kts
13-Mar-20 07:18 50.683670 -120.022093 89 8077ft 146kts
13-Mar-20 07:19 50.683659 -119.957818 89 8489ft 144kts
13-Mar-20 07:20 50.683581 -119.895725 89 8981ft 139kts
13-Mar-20 07:21 50.683471 -119.835367 89 9474ft 136kts
13-Mar-20 07:22 50.683337 -119.776530 90 9966ft 133kts
13-Mar-20 07:23 50.683176 -119.718782 90 10460ft 130kts
13-Mar-20 07:24 50.682983 -119.662587 91 10946ft 126kts
13-Mar-20 07:25 50.682665 -119.601881 91 10961ft 148kts
13-Mar-20 07:26 50.682320 -119.534598 90 10935ft 156kts
13-Mar-20 07:27 50.681941 -119.465514 90 10925ft 157kts
13-Mar-20 07:28 50.681527 -119.396505 90 10935ft 157kts
13-Mar-20 07:29 50.681066 -119.327359 91 10936ft 157kts
13-Mar-20 07:30 50.680573 -119.258079 91 10937ft 158kts
13-Mar-20 07:31 50.680029 -119.188697 91 10936ft 158kts
13-Mar-20 07:32 50.679449 -119.119440 91 10936ft 158kts
13-Mar-20 07:33 50.678830 -119.049968 91 10936ft 158kts
13-Mar-20 07:34 50.678185 -118.980687 92 10948ft 158kts
13-Mar-20 07:35 50.667811 -118.915057 118 10967ft 157kts
13-Mar-20 07:36 50.646276 -118.854951 120 10983ft 158kts
13-Mar-20 07:37 50.623921 -118.794522 121 10999ft 160kts
13-Mar-20 07:38 50.600976 -118.733587 121 11000ft 162kts
13-Mar-20 07:39 50.577873 -118.672198 121 11000ft 163kts
13-Mar-20 07:40 50.554655 -118.610601 121 10999ft 163kts
13-Mar-20 07:41 50.531494 -118.549297 121 10999ft 163kts
13-Mar-20 07:42 50.508238 -118.487888 121 10999ft 163kts
13-Mar-20 07:43 50.484911 -118.426435 121 10999ft 163kts
13-Mar-20 07:44 50.461620 -118.365224 121 10999ft 163kts
13-Mar-20 07:45 50.438555 -118.304750 122 11000ft 163kts
13-Mar-20 07:46 50.415153 -118.243534 122 10999ft 163kts
13-Mar-20 07:47 50.391781 -118.182541 122 10999ft 163kts
13-Mar-20 07:48 50.368322 -118.121463 122 10999ft 163kts
13-Mar-20 07:49 50.344821 -118.060422 122 10999ft 163kts
13-Mar-20 07:50 50.321279 -117.999415 122 10999ft 163kts
13-Mar-20 07:51 50.297768 -117.938634 122 10999ft 163kts
13-Mar-20 07:52 50.274102 -117.877593 122 10999ft 163kts
13-Mar-20 07:53 50.250506 -117.816875 122 10999ft 163kts
13-Mar-20 07:54 50.226852 -117.756150 122 10995ft 163kts
13-Mar-20 07:55 50.203129 -117.695641 121 10983ft 163kts
13-Mar-20 07:56 50.179538 -117.635152 121 10973ft 163kts
13-Mar-20 07:57 50.155885 -117.574814 121 10959ft 163kts
13-Mar-20 07:58 50.132170 -117.514490 121 10943ft 163kts
13-Mar-20 07:59 50.108442 -117.454274 121 10932ft 163kts
13-Mar-20 08:00 50.084660 -117.394266 120 10926ft 162kts
13-Mar-20 08:01 50.061333 -117.335172 121 10988ft 158kts
13-Mar-20 08:02 50.038049 -117.276460 121 10991ft 160kts
13-Mar-20 08:03 50.014502 -117.217243 121 10990ft 161kts
13-Mar-20 08:04 49.990910 -117.158170 121 10990ft 161kts
13-Mar-20 08:05 49.967257 -117.099093 121 10990ft 161kts
13-Mar-20 08:06 49.946516 -117.047387 121 10990ft 161kts
13-Mar-20 08:07 49.922743 -116.988268 121 10990ft 161kts
13-Mar-20 08:08 49.898827 -116.928933 121 10990ft 162kts
13-Mar-20 08:09 49.874930 -116.869779 121 10991ft 162kts
13-Mar-20 08:10 49.850898 -116.810422 121 10993ft 162kts
13-Mar-20 08:11 49.826822 -116.751088 122 10995ft 162kts
13-Mar-20 08:12 49.802710 -116.691800 122 10997ft 162kts
13-Mar-20 08:13 49.778593 -116.632629 122 11000ft 162kts
13-Mar-20 08:14 49.754468 -116.573606 122 10999ft 162kts
13-Mar-20 08:15 49.730345 -116.514676 122 11008ft 162kts
13-Mar-20 08:16 49.706192 -116.455833 122 11009ft 162kts
13-Mar-20 08:17 49.681920 -116.396821 122 11008ft 162kts
13-Mar-20 08:18 49.657616 -116.337862 123 11009ft 162kts
13-Mar-20 08:19 49.633225 -116.278818 123 11009ft 163kts
13-Mar-20 08:20 49.608870 -116.219994 123 11009ft 163kts
13-Mar-20 08:21 49.584478 -116.161209 123 11009ft 163kts
13-Mar-20 08:22 49.558501 -116.104533 154 10994ft 163kts
13-Mar-20 08:23 49.515088 -116.122328 202 11009ft 166kts
13-Mar-20 08:24 49.473526 -116.153962 205 11009ft 167kts
13-Mar-20 08:25 49.432301 -116.186882 205 11005ft 167kts
13-Mar-20 08:26 49.391053 -116.219985 205 10999ft 167kts
13-Mar-20 08:27 49.349794 -116.253060 205 11000ft 167kts
13-Mar-20 08:28 49.308641 -116.285997 205 11000ft 167kts
13-Mar-20 08:29 49.267376 -116.318958 205 10999ft 167kts
13-Mar-20 08:30 49.226150 -116.351826 205 10999ft 167kts
13-Mar-20 08:31 49.184932 -116.384627 205 10999ft 167kts
13-Mar-20 08:32 49.144046 -116.417115 205 11142ft 159kts
13-Mar-20 08:33 49.103958 -116.448902 205 11146ft 165kts
13-Mar-20 08:35 49.062859 -116.481493 204 11110ft 167kts
13-Mar-20 08:36 49.021521 -116.514153 203 11082ft 167kts
13-Mar-20 08:37 48.980332 -116.547007 203 11062ft 166kts
13-Mar-20 08:38 48.939485 -116.579333 202 11054ft 165kts
13-Mar-20 08:39 48.898788 -116.611246 202 11054ft 164kts
13-Mar-20 08:40 48.858097 -116.643111 202 11057ft 165kts
13-Mar-20 08:41 48.817214 -116.675069 202 11054ft 164kts
13-Mar-20 08:42 48.776623 -116.706771 201 11055ft 164kts
13-Mar-20 08:43 48.736078 -116.738354 201 11055ft 164kts
13-Mar-20 08:44 48.695474 -116.769928 201 11054ft 164kts
13-Mar-20 08:45 48.654748 -116.801555 201 11055ft 164kts
13-Mar-20 08:46 48.614167 -116.833006 201 11054ft 164kts
13-Mar-20 08:47 48.573466 -116.864476 201 11054ft 164kts
13-Mar-20 08:48 48.532869 -116.895805 201 11054ft 164kts
13-Mar-20 08:49 48.492059 -116.927206 202 11054ft 165kts
13-Mar-20 08:50 48.451268 -116.958593 203 11054ft 165kts
13-Mar-20 08:51 48.410050 -116.990244 203 11051ft 166kts
13-Mar-20 08:52 48.368781 -117.021854 204 11047ft 167kts
13-Mar-20 08:53 48.327279 -117.053619 204 11042ft 167kts
13-Mar-20 08:54 48.285705 -117.085367 205 11039ft 168kts
13-Mar-20 08:54 48.250935 -117.111876 205 11037ft 168kts
13-Mar-20 08:55 48.209203 -117.143677 205 11036ft 168kts
13-Mar-20 08:57 48.160474 -117.180717 205 11036ft 168kts
13-Mar-20 08:57 48.125613 -117.207170 205 11036ft 168kts
13-Mar-20 08:58 48.083753 -117.238876 205 11036ft 168kts
13-Mar-20 09:00 48.034982 -117.275660 205 11036ft 168kts
13-Mar-20 09:00 48.000109 -117.302036 205 11023ft 169kts
13-Mar-20 09:01 47.958365 -117.333427 204 11008ft 166kts
13-Mar-20 09:02 47.917148 -117.364405 204 11008ft 166kts
13-Mar-20 09:03 47.875811 -117.395426 204 11010ft 166kts
13-Mar-20 09:04 47.834606 -117.426297 204 11007ft 166kts
13-Mar-20 09:05 47.790282 -117.459422 204 10038ft 185kts
13-Mar-20 09:06 47.744049 -117.493927 204 9045ft 186kts
13-Mar-20 09:07 47.711084 -117.551027 232 8203ft 185kts
13-Mar-20 09:08 47.676409 -117.607035 225 7356ft 184kts
13-Mar-20 09:09 47.638313 -117.658220 219 6357ft 183kts
13-Mar-20 09:10 47.591659 -117.660958 154 5081ft 177kts
13-Mar-20 09:11 47.570129 -117.611633 51 3509ft 153kts
13-Mar-20 09:12 47.592942 -117.575705 46 2746ft 112kts
13-Mar-20 09:13 47.611549 -117.547933 44 2381ft 78kts
13-Mar-20 09:14 47.618092 -117.536265 95 2366ft 11kts
13-Mar-20 09:15 47.618024 -117.532929 87 2366ft 17kts
13-Mar-20 09:16 47.617932 -117.524727 91 2367ft 15kts
13-Mar-20 09:17 47.619086 -117.523691 93 2364ft 0kts
13-Mar-20 09:18 47.619086 -117.523691 93 2364ft 0kts
13-Mar-20 09:19 47.619086 -117.523691 93 2364ft 0kts
13-Mar-20 09:20 47.619086 -117.523691 93 2364ft 0kts
13-Mar-20 09:21 47.619086 -117.523691 93 2364ft 0kts
13-Mar-20 09:22 47.619086 -117.523691 93 2364ft 0kts
13-Mar-20 09:23 47.619086 -117.523691 93 2364ft 0kts
13-Mar-20 09:24 47.619086 -117.523691 93 2364ft 0kts
13-Mar-20 09:25 47.619086 -117.523691 93 2364ft 0kts
13-Mar-20 09:26 47.619086 -117.523691 93 2364ft 0kts
13-Mar-20 09:27 47.619086 -117.523691 93 2364ft 0kts
13-Mar-20 09:28 47.619086 -117.523691 93 2364ft 0kts

Navigation Log

Ident Type
Flight plan parsing failed, navigation log unavailable